Impacts TAF Board
For situational awareness. Not to be used for flight planning purposes.
IDs:

KHOU - Houston/Hobby Arpt, TX, US

Issued at 1552 UTC 23 Sep 2020
Updated at 1719 UTC 23 Sep 2020
Potential Impact None Slight Moderate High
Time1653Z 23/18Z 23/19Z 23/20Z 23/21Z 23/22Z 23/23Z 24/00Z 24/01Z 24/02Z 24/03Z 24/04Z 24/05Z 24/06Z>>
Type OBS PRVL PRVL PRVL PRVL PRVL PRVL PRVL PRVL PRVL PRVL PRVL PRVL PRVL
VIS 10 6 6 6 6 6 6 >6 >6 >6 >6 >6 >6 >6
CIG 12 10 10 10 10 10 10 15 15 15 15 15 15 15
Cover OVC OVC OVC OVC OVC OVC OVC OVC OVC OVC OVC OVC OVC BKN
FltCat MVFR MVFR MVFR MVFR MVFR MVFR MVFR MVFR MVFR MVFR MVFR MVFR MVFR MVFR
WX -- BR BR BR BR BR BR -- -- -- -- -- -- --
WDir 320 310 310 310 310 310 310 350 350 350 350 350 350 350
WSpd 12 15 15 15 15 15 15 13 13 13 13 13 13 6
WGst -- -- -- -- -- -- -- -- -- -- -- -- -- --
R04/22
XWnd 12 15 15 15 15 15 15 11 11 11 11 11 11 5
HWnd 1 -1 -1 -1 -1 -1 -1 8 8 8 8 8 8 4
R12/30
XWnd 1 -1 -1 -1 -1 -1 -1 8 8 8 8 8 8 4
HWnd -12 -15 -15 -15 -15 -15 -15 -11 -11 -11 -11 -11 -11 -5
R17/35
XWnd -8 -11 -11 -11 -11 -11 -11 -2 -2 -2 -2 -2 -2 -1
HWnd -9 -10 -10 -10 -10 -10 -10 -13 -13 -13 -13 -13 -13 -6
Raw TAF
KHOU 231552Z 2316/2412 31015KT 6SM BR OVC010
  TEMPO 2316/2318 2SM -RA BR OVC008
  FM240000 35013KT P6SM OVC015
  FM240600 35006KT P6SM BKN015 BKN050


Raw METAR
KHOU 231653Z 32012KT 10SM OVC012 24/21 A2984 RMK AO2 SLP108 T02390211
KHOU 231553Z 32014G21KT 10SM OVC010 23/21 A2983 RMK AO2 SLP106 T02330206
KHOU 231532Z 31015KT 10SM OVC010 23/21 A2983 RMK AO2 T02280206
KHOU 231453Z 32014G21KT 10SM OVC008 22/21 A2982 RMK AO2 CIG 007V012 SLP104 60001 T02220206 53020

METAR Board
Radar Display
Forecast Discussion
For situational awareness. Not to be used for flight planning purposes.